FVLA weather

Langford Airport
Langford, Mashonaland East Province, Zimbabwe

Public forecast

Using degrees Celsius for public forecast. Weather courtesy of forecast.io.

Closest aviation weather report (METAR) to Langford Airport

Closest report is Robert Gabriel Mugabe International Airport, 8.2 nm (15.1 km) E. Retrieved 2019/10/21 19:00 UTC (43 minutes ago):

FVRG 211900Z 09009KT CAVOK 26/05 Q1019 NOSIG

Closest aviation forecast (TAF) to Langford Airport

Forecast is more than 12 hours old.

Closest forecast is Robert Gabriel Mugabe International Airport, 8.2 nm (15.1 km) E. Retrieved 2019-10-19 00:00 UTC (3 days ago):

TAF FBSK 182100Z 1900/2006 23010KT CAVOK TAF FVRG 182200Z 1900/2006 VRB03KT CAVOK